KHLG/HLG METAR and TAF weather

Enter ICAO airport designator
Station Type Date Time Source
KHLG METAR 2021/09/23 18:16 UTC NOAA

KHLG 231816Z 22015G20KT 10SM OVC029 12/07 A2992 RMK AO2 T01220067


Station Type Date Time Source
KHLG Decoded METAR 2021/09/23 18:16 UTC NOAA

WHEELING OHIO COUNTY AIRPORT, WV, United States (KHLG) 40-10N 080-39W 372M
Sep 23, 2021 - 02:16 PM EDT / 2021.09.23 1816 UTC
Wind: from the SW (220 degrees) at 17 MPH (15 KT) gusting to 23 MPH (20 KT):0
Visibility: 10 mile(s):0
Sky conditions: overcast
Temperature: 54.0 F (12.2 C)
Dew Point: 44.1 F (6.7 C)
Relative Humidity: 69%
Pressure (altimeter): 29.92 in. Hg (1013 hPa)
ob: KHLG 231816Z 22015G20KT 10SM OVC029 12/07 A2992 RMK AO2 T01220067
cycle: 18

Station Type Date Time Source
KHLG TAF 2021/09/23 18:42 UTC NOAA

TAF KHLG 231738Z 2318/2418 23012G21KT P6SM BKN045
FM240300 21007KT P6SM SCT250
FM241500 21008G16KT P6SM SCT045

Example: see airport list